createdAt,value
2023-11-25T00:00:44.483Z,23.74
2023-11-25T00:03:10.907Z,23.74
2023-11-25T00:05:37.364Z,23.70
2023-11-25T00:08:03.802Z,23.69
2023-11-25T00:10:30.476Z,23.69
2023-11-25T00:12:56.992Z,23.69
2023-11-25T00:15:26.047Z,23.69
2023-11-25T00:17:53.496Z,23.65
2023-11-25T00:20:23.115Z,23.63
2023-11-25T00:22:49.571Z,23.60
2023-11-25T00:25:16.363Z,23.57
2023-11-25T00:27:43.314Z,23.55
2023-11-25T00:30:10.090Z,23.53
2023-11-25T00:32:38.824Z,23.52
2023-11-25T00:35:06.355Z,23.48
2023-11-25T00:37:36.508Z,23.45
2023-11-25T00:40:06.164Z,23.44
2023-11-25T00:42:32.670Z,23.40
2023-11-25T00:44:59.610Z,23.38
2023-11-25T00:47:28.763Z,23.35
2023-11-25T00:49:56.526Z,23.32
2023-11-25T00:52:23.327Z,23.30
2023-11-25T00:54:49.978Z,23.29
2023-11-25T00:57:16.457Z,23.27
2023-11-25T00:59:43.191Z,23.24
2023-11-25T01:02:09.586Z,23.23
2023-11-25T01:04:36.006Z,23.19
2023-11-25T01:07:02.475Z,23.16
2023-11-25T01:09:31.768Z,23.16
2023-11-25T01:11:58.127Z,23.12
2023-11-25T01:14:24.609Z,23.12
2023-11-25T01:16:51.428Z,23.03
2023-11-25T01:19:17.882Z,22.97
2023-11-25T01:21:44.293Z,22.96
2023-11-25T01:24:12.632Z,22.99
2023-11-25T01:26:42.018Z,22.99
2023-11-25T01:29:08.431Z,22.96
2023-11-25T01:31:35.062Z,22.95
2023-11-25T01:34:02.736Z,22.93
2023-11-25T01:36:29.224Z,22.91
2023-11-25T01:38:55.593Z,22.83
2023-11-25T01:41:21.971Z,22.86
2023-11-25T01:43:48.570Z,22.84
2023-11-25T01:46:18.050Z,22.81
2023-11-25T01:48:44.546Z,22.79
2023-11-25T01:51:11.420Z,22.77
2023-11-25T01:53:39.750Z,22.76
2023-11-25T01:56:06.282Z,22.75
2023-11-25T01:58:33.414Z,22.71
2023-11-25T02:00:59.949Z,22.70
2023-11-25T02:03:26.837Z,22.69
2023-11-25T02:05:53.545Z,22.65
2023-11-25T02:08:21.823Z,22.62
2023-11-25T02:10:48.354Z,22.62
2023-11-25T02:13:14.787Z,22.59
2023-11-25T02:15:42.122Z,22.59
2023-11-25T02:18:08.697Z,22.54
2023-11-25T02:20:38.827Z,22.55
2023-11-25T02:23:05.290Z,22.55
2023-11-25T02:25:31.855Z,22.50
2023-11-25T02:27:59.589Z,22.51
2023-11-25T02:30:25.979Z,22.48
2023-11-25T02:32:52.458Z,22.47
2023-11-25T02:35:18.914Z,22.43
2023-11-25T02:37:46.545Z,22.41
2023-11-25T02:40:19.265Z,22.36
2023-11-25T02:42:48.527Z,22.38
2023-11-25T02:45:19.754Z,22.33
2023-11-25T02:47:47.039Z,22.31
2023-11-25T02:50:14.620Z,22.28
2023-11-25T02:52:41.456Z,22.26
2023-11-25T02:55:11.320Z,22.26
2023-11-25T02:57:44.621Z,22.25
2023-11-25T03:00:18.062Z,22.23
2023-11-25T03:02:45.310Z,22.21
2023-11-25T03:05:12.397Z,22.18
2023-11-25T03:07:39.547Z,22.19
2023-11-25T03:10:07.614Z,22.17
2023-11-25T03:12:34.078Z,22.16
2023-11-25T03:15:00.451Z,22.17
2023-11-25T03:17:28.999Z,22.13
2023-11-25T03:19:55.393Z,22.14
2023-11-25T03:22:23.199Z,22.14
2023-11-25T03:24:49.956Z,22.09
2023-11-25T03:27:16.692Z,22.08
2023-11-25T03:29:43.055Z,22.06
2023-11-25T03:32:10.787Z,22.03
2023-11-25T03:34:37.269Z,22.02
2023-11-25T03:37:03.964Z,22.01
2023-11-25T03:39:32.334Z,22.00
2023-11-25T03:42:02.486Z,21.98
2023-11-25T03:44:29.170Z,21.95
2023-11-25T03:46:55.787Z,21.96
2023-11-25T03:49:22.515Z,21.90
2023-11-25T03:51:48.919Z,21.90
2023-11-25T03:54:15.553Z,21.90
2023-11-25T03:56:41.923Z,21.88
2023-11-25T03:59:09.578Z,21.85
2023-11-25T04:01:36.885Z,21.87
2023-11-25T04:04:05.170Z,21.86
2023-11-25T04:06:31.626Z,21.85
2023-11-25T04:08:58.027Z,21.83
2023-11-25T04:11:24.390Z,21.80
2023-11-25T04:13:51.270Z,21.79
2023-11-25T04:16:18.609Z,21.77
2023-11-25T04:18:45.169Z,21.75
2023-11-25T04:21:11.547Z,21.73
2023-11-25T04:23:37.967Z,21.68
2023-11-25T04:26:04.423Z,21.66
2023-11-25T04:28:30.845Z,21.63
2023-11-25T04:30:57.203Z,21.61
2023-11-25T04:33:23.771Z,21.58
2023-11-25T04:35:50.156Z,21.55
2023-11-25T04:38:16.597Z,21.52
2023-11-25T04:40:43.190Z,21.52
2023-11-25T04:43:09.972Z,21.55
2023-11-25T04:45:36.417Z,21.54
2023-11-25T04:48:02.886Z,21.56
2023-11-25T04:50:30.319Z,21.57
2023-11-25T04:52:56.736Z,21.57
2023-11-25T04:55:27.215Z,21.57
2023-11-25T04:57:54.276Z,21.55
2023-11-25T05:00:22.861Z,21.54
2023-11-25T05:02:49.514Z,21.55
2023-11-25T05:05:15.975Z,21.54
2023-11-25T05:07:42.606Z,21.53
2023-11-25T05:10:11.485Z,21.53
2023-11-25T05:12:38.717Z,21.49
2023-11-25T05:15:05.472Z,21.48
2023-11-25T05:17:32.059Z,21.46
2023-11-25T05:19:58.461Z,21.44
2023-11-25T05:22:29.014Z,21.42
2023-11-25T05:24:55.810Z,21.41
2023-11-25T05:27:23.530Z,21.39
2023-11-25T05:29:50.712Z,21.35
2023-11-25T05:32:17.161Z,21.33
2023-11-25T05:34:43.721Z,21.31
2023-11-25T05:37:10.119Z,21.29
2023-11-25T05:39:37.163Z,21.29
2023-11-25T05:42:04.539Z,21.26
2023-11-25T05:44:32.634Z,21.24
2023-11-25T05:46:59.177Z,21.22
2023-11-25T05:49:25.561Z,21.22
2023-11-25T05:51:52.252Z,21.23
2023-11-25T05:54:19.391Z,21.21
2023-11-25T05:56:45.975Z,21.22
2023-11-25T05:59:12.694Z,21.21
2023-11-25T06:01:39.267Z,21.21
2023-11-25T06:04:05.765Z,21.22
2023-11-25T06:06:32.228Z,21.19
2023-11-25T06:08:58.814Z,21.19
2023-11-25T06:11:29.564Z,21.21
2023-11-25T06:13:57.447Z,21.22
2023-11-25T06:16:24.159Z,21.21
2023-11-25T06:18:50.550Z,21.21
2023-11-25T06:21:16.945Z,21.20
2023-11-25T06:23:46.401Z,21.19
2023-11-25T06:26:12.954Z,21.16
2023-11-25T06:28:42.782Z,21.15
2023-11-25T06:31:18.300Z,21.13
2023-11-25T06:33:46.301Z,21.13
2023-11-25T06:36:12.739Z,21.12
2023-11-25T06:38:39.260Z,21.10
2023-11-25T06:41:05.904Z,21.07
2023-11-25T06:43:32.367Z,21.05
2023-11-25T06:46:00.637Z,21.04
2023-11-25T06:48:28.521Z,21.01
2023-11-25T06:50:55.989Z,21.02
2023-11-25T06:53:22.375Z,21.04
2023-11-25T06:55:48.801Z,21.05
2023-11-25T06:58:15.330Z,21.04
2023-11-25T07:00:42.191Z,21.04
2023-11-25T07:03:09.838Z,21.02
2023-11-25T07:05:36.275Z,21.02
2023-11-25T07:08:02.837Z,21.02
2023-11-25T07:10:35.442Z,21.00
2023-11-25T07:13:02.334Z,21.00
2023-11-25T07:15:28.714Z,20.98
2023-11-25T07:17:55.334Z,20.97
2023-11-25T07:20:21.822Z,20.96
2023-11-25T07:22:48.525Z,20.95
2023-11-25T07:25:15.887Z,20.95
2023-11-25T07:27:42.755Z,20.96
2023-11-25T07:30:09.957Z,20.97
2023-11-25T07:32:36.493Z,21.00
2023-11-25T07:35:07.303Z,21.06
2023-11-25T07:37:34.561Z,21.07
2023-11-25T07:40:00.985Z,21.07
2023-11-25T07:42:27.413Z,21.07
2023-11-25T07:44:53.797Z,21.06
2023-11-25T07:47:20.463Z,21.09
2023-11-25T07:49:47.125Z,21.14
2023-11-25T07:52:13.554Z,21.13
2023-11-25T07:54:39.935Z,21.13
2023-11-25T07:57:07.580Z,21.13
2023-11-25T07:59:33.962Z,21.13
2023-11-25T08:02:00.389Z,21.11
2023-11-25T08:04:26.943Z,21.13
2023-11-25T08:06:53.342Z,21.09
2023-11-25T08:09:19.712Z,21.09
2023-11-25T08:11:47.093Z,21.05
2023-11-25T08:14:14.709Z,20.99
2023-11-25T08:16:41.509Z,20.97
2023-11-25T08:19:07.897Z,20.97
2023-11-25T08:21:34.274Z,20.96
2023-11-25T08:24:01.469Z,20.95
2023-11-25T08:26:27.878Z,20.92
2023-11-25T08:28:54.478Z,20.97
2023-11-25T08:31:21.261Z,20.93
2023-11-25T08:33:47.993Z,20.95
2023-11-25T08:36:15.181Z,20.90
2023-11-25T08:38:41.652Z,20.88
2023-11-25T08:41:08.192Z,20.87
2023-11-25T08:43:41.435Z,20.84
2023-11-25T08:46:08.062Z,20.84
2023-11-25T08:48:34.675Z,20.84
2023-11-25T08:51:01.563Z,20.82
2023-11-25T08:53:30.327Z,20.72
2023-11-25T08:55:57.403Z,20.67
2023-11-25T08:58:26.829Z,20.69
2023-11-25T09:00:53.381Z,20.69
2023-11-25T09:03:19.934Z,20.70
2023-11-25T09:05:49.502Z,20.76
2023-11-25T09:08:15.972Z,20.76
2023-11-25T09:10:42.719Z,20.76
2023-11-25T09:13:09.243Z,20.75
2023-11-25T09:15:41.651Z,20.73
2023-11-25T09:18:08.873Z,20.79
2023-11-25T09:20:38.287Z,20.72
2023-11-25T09:23:04.731Z,20.67
2023-11-25T09:25:32.407Z,20.65
2023-11-25T09:27:59.352Z,20.61
2023-11-25T09:30:26.020Z,20.60
2023-11-25T09:32:52.507Z,20.60
2023-11-25T09:35:19.068Z,20.63
2023-11-25T09:37:46.552Z,20.60
2023-11-25T09:40:15.994Z,20.58
2023-11-25T09:42:45.602Z,20.59
2023-11-25T09:45:12.109Z,20.57
2023-11-25T09:47:38.991Z,20.56
2023-11-25T09:50:06.783Z,20.57
2023-11-25T09:52:33.405Z,20.57
2023-11-25T09:54:59.799Z,20.55
2023-11-25T09:57:26.262Z,20.55
2023-11-25T09:59:52.707Z,20.53
2023-11-25T10:02:19.805Z,20.54
2023-11-25T10:04:46.284Z,20.55
2023-11-25T10:07:12.656Z,20.61
2023-11-25T10:09:40.180Z,20.69
2023-11-25T10:12:07.260Z,20.67
2023-11-25T10:14:33.707Z,20.71
2023-11-25T10:17:05.795Z,20.62
2023-11-25T10:19:32.190Z,20.60
2023-11-25T10:21:59.149Z,20.45
2023-11-25T10:24:25.544Z,20.43
2023-11-25T10:26:52.382Z,20.43
2023-11-25T10:29:21.967Z,20.45
2023-11-25T10:31:56.255Z,20.50
2023-11-25T10:34:25.348Z,20.49
2023-11-25T10:36:51.798Z,20.50
2023-11-25T10:39:21.500Z,20.50
2023-11-25T10:41:51.873Z,20.49
2023-11-25T10:44:19.141Z,20.49
2023-11-25T10:46:45.555Z,20.49
2023-11-25T10:49:13.138Z,20.45
2023-11-25T10:51:40.133Z,20.45
2023-11-25T10:54:08.997Z,20.42
2023-11-25T10:56:35.621Z,20.39
2023-11-25T10:59:02.358Z,20.42
2023-11-25T11:01:29.732Z,20.36
2023-11-25T11:04:00.873Z,20.36
2023-11-25T11:06:30.682Z,20.39
2023-11-25T11:08:57.041Z,20.32
2023-11-25T11:11:32.338Z,20.24
2023-11-25T11:14:02.095Z,20.28
2023-11-25T11:16:41.778Z,20.36
2023-11-25T11:19:08.846Z,20.51
2023-11-25T11:21:35.756Z,20.57
2023-11-25T11:24:02.186Z,20.63
2023-11-25T11:26:49.314Z,20.71
2023-11-25T11:29:19.377Z,20.74
2023-11-25T11:31:45.759Z,20.83
2023-11-25T11:34:12.247Z,20.91
2023-11-25T11:36:39.019Z,21.11
2023-11-25T11:39:05.429Z,21.28
2023-11-25T11:41:31.810Z,21.44
2023-11-25T11:44:02.042Z,21.71
2023-11-25T11:46:28.508Z,21.75
2023-11-25T11:48:54.981Z,21.81
2023-11-25T11:51:22.893Z,21.94
2023-11-25T11:54:09.527Z,22.06
2023-11-25T11:56:54.579Z,22.23
2023-11-25T11:59:21.492Z,22.34
2023-11-25T12:01:47.893Z,22.41
2023-11-25T12:04:17.991Z,22.44
2023-11-25T12:06:44.685Z,22.46
2023-11-25T12:09:12.474Z,22.47
2023-11-25T12:11:42.164Z,22.49
2023-11-25T12:14:08.590Z,22.54
2023-11-25T12:16:35.128Z,22.54
2023-11-25T12:19:01.553Z,22.57
2023-11-25T12:21:29.924Z,22.61
2023-11-25T12:23:56.289Z,22.68
2023-11-25T12:26:23.722Z,22.76
2023-11-25T12:28:50.376Z,22.74
2023-11-25T12:31:16.830Z,22.67
2023-11-25T12:33:43.313Z,22.62
2023-11-25T12:36:09.751Z,22.63
2023-11-25T12:38:37.828Z,22.60
2023-11-25T12:41:11.977Z,22.60
2023-11-25T12:43:38.469Z,22.59
2023-11-25T12:46:10.935Z,22.57
2023-11-25T12:48:37.337Z,22.56
2023-11-25T12:51:05.142Z,22.55
2023-11-25T12:53:31.829Z,22.54
2023-11-25T12:55:58.862Z,22.55
2023-11-25T12:58:25.532Z,22.60
2023-11-25T13:00:52.587Z,22.63
2023-11-25T13:03:22.764Z,22.80
2023-11-25T13:05:52.841Z,22.84
2023-11-25T13:08:19.503Z,22.87
2023-11-25T13:10:46.345Z,22.87
2023-11-25T13:13:12.734Z,22.91
2023-11-25T13:15:39.157Z,22.93
2023-11-25T13:18:05.546Z,22.91
2023-11-25T13:20:32.573Z,22.89
2023-11-25T13:22:58.971Z,22.90
2023-11-25T13:25:26.329Z,22.86
2023-11-25T13:27:52.744Z,22.83
2023-11-25T13:30:19.118Z,22.80
2023-11-25T13:32:45.534Z,22.80
2023-11-25T13:35:11.920Z,22.81
2023-11-25T13:37:38.336Z,22.79
2023-11-25T13:40:08.291Z,22.80
2023-11-25T13:42:34.657Z,22.81
2023-11-25T13:45:03.181Z,22.81
2023-11-25T13:47:30.029Z,22.84
2023-11-25T13:49:56.516Z,22.91
2023-11-25T13:52:22.932Z,22.85
2023-11-25T13:54:49.307Z,22.83
2023-11-25T13:57:15.690Z,22.82
2023-11-25T13:59:42.172Z,22.86
2023-11-25T14:02:08.653Z,22.74
2023-11-25T14:04:35.141Z,22.72
2023-11-25T14:07:01.590Z,22.84
2023-11-25T14:09:28.174Z,23.02
2023-11-25T14:11:54.619Z,23.14
2023-11-25T14:14:21.232Z,23.30
2023-11-25T14:16:48.524Z,23.38
2023-11-25T14:19:15.364Z,23.39
2023-11-25T14:21:41.962Z,23.41
2023-11-25T14:24:08.496Z,23.43
2023-11-25T14:26:38.202Z,23.48
2023-11-25T14:29:04.580Z,23.53
2023-11-25T14:31:33.591Z,23.53
2023-11-25T14:34:00.536Z,23.58
2023-11-25T14:36:27.502Z,23.58
2023-11-25T14:38:53.857Z,23.59
2023-11-25T14:41:24.372Z,23.58
2023-11-25T14:43:51.147Z,23.62
2023-11-25T14:46:18.080Z,23.65
2023-11-25T14:48:45.224Z,23.59
2023-11-25T14:51:11.901Z,23.74
2023-11-25T14:53:41.498Z,23.62
2023-11-25T14:56:07.935Z,23.62
2023-11-25T14:58:34.683Z,23.61
2023-11-25T15:01:01.362Z,23.58
2023-11-25T15:03:32.524Z,23.58
2023-11-25T15:05:59.201Z,23.56
2023-11-25T15:08:26.517Z,23.53
2023-11-25T15:10:53.065Z,23.54
2023-11-25T15:13:19.535Z,23.55
2023-11-25T15:15:47.726Z,23.59
2023-11-25T15:18:16.762Z,23.58
2023-11-25T15:20:43.630Z,23.61
2023-11-25T15:23:10.346Z,23.62
2023-11-25T15:25:36.945Z,23.60
2023-11-25T15:28:06.927Z,23.59
2023-11-25T15:30:33.687Z,23.60
2023-11-25T15:33:00.801Z,23.63
2023-11-25T15:35:29.895Z,23.63
2023-11-25T15:37:57.062Z,23.60
2023-11-25T15:40:23.868Z,23.56
2023-11-25T15:42:50.262Z,23.49
2023-11-25T15:45:16.795Z,23.50
2023-11-25T15:47:43.361Z,23.50
2023-11-25T15:50:10.247Z,23.48
2023-11-25T15:52:36.949Z,23.46
2023-11-25T15:55:03.378Z,23.44
2023-11-25T15:57:29.751Z,23.44
2023-11-25T15:59:56.133Z,23.40
2023-11-25T16:02:22.628Z,23.40
2023-11-25T16:04:49.634Z,23.35
2023-11-25T16:07:17.907Z,23.33
2023-11-25T16:09:45.386Z,23.29
2023-11-25T16:14:40.328Z,23.25
2023-11-25T16:17:07.390Z,23.23
2023-11-25T16:19:34.005Z,23.19
2023-11-25T16:22:01.179Z,23.16
2023-11-25T16:24:27.631Z,23.13
2023-11-25T16:26:54.008Z,23.13
2023-11-25T16:29:20.471Z,23.10
2023-11-25T16:31:46.947Z,23.09
2023-11-25T16:34:13.821Z,23.08
2023-11-25T16:36:40.564Z,23.08
2023-11-25T16:39:07.723Z,23.06
2023-11-25T16:41:34.385Z,23.04
2023-11-25T16:44:00.880Z,23.04
2023-11-25T16:46:27.310Z,23.03
2023-11-25T16:48:58.447Z,23.01
2023-11-25T16:51:31.064Z,22.96
2023-11-25T16:53:57.444Z,22.93
2023-11-25T16:56:23.807Z,22.91
2023-11-25T16:58:50.203Z,22.87
2023-11-25T17:01:17.153Z,22.84
2023-11-25T17:03:43.697Z,22.83
2023-11-25T17:06:10.481Z,22.79
2023-11-25T17:08:36.986Z,22.77
2023-11-25T17:11:04.967Z,22.73
2023-11-25T17:13:31.957Z,22.70
2023-11-25T17:15:58.586Z,22.71
2023-11-25T17:18:25.004Z,22.72
2023-11-25T17:20:51.410Z,22.72
2023-11-25T17:23:17.810Z,22.73
2023-11-25T17:25:44.270Z,22.71
2023-11-25T17:28:10.646Z,22.70
2023-11-25T17:30:37.183Z,22.70
2023-11-25T17:33:04.425Z,22.70
2023-11-25T17:35:30.923Z,22.67
2023-11-25T17:37:57.789Z,22.65
2023-11-25T17:40:24.363Z,22.62
2023-11-25T17:42:50.718Z,22.59
2023-11-25T17:45:18.896Z,22.57
2023-11-25T17:47:45.273Z,22.56
2023-11-25T17:50:11.823Z,22.55
2023-11-25T17:52:38.286Z,22.51
2023-11-25T17:55:06.744Z,22.52
2023-11-25T17:57:33.952Z,22.49
2023-11-25T18:00:00.628Z,22.48
2023-11-25T18:02:27.209Z,22.47
2023-11-25T18:04:54.356Z,22.45
2023-11-25T18:07:20.793Z,22.42
2023-11-25T18:09:47.168Z,22.40
2023-11-25T18:12:13.545Z,22.35
2023-11-25T18:14:39.963Z,22.37
2023-11-25T18:17:06.478Z,22.34
2023-11-25T18:19:32.874Z,22.32
2023-11-25T18:21:59.243Z,22.30
2023-11-25T18:24:25.612Z,22.25
2023-11-25T18:26:51.991Z,22.23
2023-11-25T18:29:19.741Z,22.25
2023-11-25T18:31:46.172Z,22.22
2023-11-25T18:34:12.567Z,22.19
2023-11-25T18:36:39.180Z,22.19
2023-11-25T18:39:05.857Z,22.17
2023-11-25T18:41:32.227Z,22.18
2023-11-25T18:43:58.673Z,22.18
2023-11-25T18:46:26.265Z,22.15
2023-11-25T18:48:52.694Z,22.15
2023-11-25T18:51:19.063Z,22.14
2023-11-25T18:53:45.427Z,22.11
2023-11-25T18:56:12.366Z,22.08
2023-11-25T18:58:40.337Z,22.06
2023-11-25T19:01:06.790Z,22.04
2023-11-25T19:03:33.238Z,22.02
2023-11-25T19:05:59.655Z,22.00
2023-11-25T19:08:26.102Z,21.98
2023-11-25T19:10:53.392Z,21.97
2023-11-25T19:13:19.764Z,21.94
2023-11-25T19:15:46.299Z,21.91
2023-11-25T19:18:12.816Z,21.88
2023-11-25T19:20:39.623Z,21.86
2023-11-25T19:23:06.693Z,21.84
2023-11-25T19:25:36.256Z,21.85
2023-11-25T19:28:03.027Z,21.83
2023-11-25T19:30:29.875Z,21.83
2023-11-25T19:32:56.501Z,21.86
2023-11-25T19:35:22.991Z,21.85
2023-11-25T19:37:50.024Z,21.84
2023-11-25T19:40:16.637Z,21.88
2023-11-25T19:42:43.695Z,22.03
2023-11-25T19:45:10.609Z,22.00
2023-11-25T19:47:39.044Z,22.06
2023-11-25T19:50:08.783Z,22.11
2023-11-25T19:52:37.904Z,22.41
2023-11-25T19:55:06.029Z,22.50
2023-11-25T19:57:32.466Z,22.63
2023-11-25T19:59:59.702Z,22.73
2023-11-25T20:02:26.185Z,22.81
2023-11-25T20:04:52.671Z,22.88
2023-11-25T20:07:19.044Z,22.91
2023-11-25T20:09:45.665Z,22.94
2023-11-25T20:12:12.209Z,22.95
2023-11-25T20:14:38.649Z,23.01
2023-11-25T20:17:05.561Z,23.03
2023-11-25T20:19:32.046Z,23.10
2023-11-25T20:21:58.445Z,23.10
2023-11-25T20:24:25.011Z,23.13
2023-11-25T20:26:51.487Z,23.12
2023-11-25T20:29:17.873Z,23.13
2023-11-25T20:31:46.005Z,23.11
2023-11-25T20:34:12.393Z,23.11
2023-11-25T20:36:38.842Z,23.12
2023-11-25T20:39:05.268Z,23.16
2023-11-25T20:41:31.677Z,23.16
2023-11-25T20:43:58.136Z,23.19
2023-11-25T20:46:24.622Z,23.23
2023-11-25T20:48:51.540Z,23.32
2023-11-25T20:51:23.012Z,23.29
2023-11-25T20:53:50.020Z,23.30
2023-11-25T20:56:16.606Z,23.30
2023-11-25T20:58:43.365Z,23.32
2023-11-25T21:01:09.802Z,23.32
2023-11-25T21:03:36.408Z,23.34
2023-11-25T21:06:03.693Z,23.33
2023-11-25T21:08:30.348Z,23.33
2023-11-25T21:10:56.768Z,23.33
2023-11-25T21:13:23.152Z,23.32
2023-11-25T21:15:50.745Z,23.31
2023-11-25T21:18:17.444Z,23.32
2023-11-25T21:20:43.877Z,23.31
2023-11-25T21:23:10.573Z,23.31
2023-11-25T21:25:37.099Z,23.29
2023-11-25T21:28:03.751Z,23.25
2023-11-25T21:30:30.678Z,23.27
2023-11-25T21:32:59.957Z,23.30
2023-11-25T21:35:26.347Z,23.24
2023-11-25T21:37:52.866Z,23.17
2023-11-25T21:40:23.560Z,23.19
2023-11-25T21:42:50.665Z,23.20
2023-11-25T21:45:17.078Z,23.17
2023-11-25T21:47:43.496Z,23.15
2023-11-25T21:50:10.270Z,23.12
2023-11-25T21:52:37.221Z,23.12
2023-11-25T21:55:04.776Z,23.12
2023-11-25T21:57:31.169Z,23.14
2023-11-25T21:59:57.599Z,23.16
2023-11-25T22:02:24.154Z,23.40
2023-11-25T22:04:50.710Z,23.61
2023-11-25T22:07:17.099Z,23.63
2023-11-25T22:09:43.459Z,23.64
2023-11-25T22:12:09.917Z,23.69
2023-11-25T22:14:36.307Z,23.75
2023-11-25T22:17:02.716Z,23.80
2023-11-25T22:19:29.093Z,23.83
2023-11-25T22:21:55.481Z,23.88
2023-11-25T22:24:24.815Z,23.97
2023-11-25T22:26:57.354Z,23.93
2023-11-25T22:29:24.187Z,24.00
2023-11-25T22:31:52.043Z,24.00
2023-11-25T22:34:18.569Z,23.97
2023-11-25T22:36:44.952Z,24.00
2023-11-25T22:39:11.334Z,23.98
2023-11-25T22:41:38.587Z,23.98
2023-11-25T22:44:05.147Z,23.97
2023-11-25T22:46:31.863Z,23.97
2023-11-25T22:48:58.288Z,24.00
2023-11-25T22:51:25.257Z,24.00
2023-11-25T22:53:51.742Z,23.79
2023-11-25T22:56:18.161Z,23.88
2023-11-25T22:58:45.202Z,23.91
2023-11-25T23:01:14.929Z,23.91
2023-11-25T23:03:41.514Z,23.91
2023-11-25T23:06:10.173Z,23.91
2023-11-25T23:08:38.115Z,23.94
2023-11-25T23:11:04.662Z,23.94
2023-11-25T23:13:31.058Z,23.98
2023-11-25T23:15:59.540Z,23.97
2023-11-25T23:18:26.305Z,24.01
2023-11-25T23:20:52.707Z,23.96
2023-11-25T23:23:20.698Z,23.92
2023-11-25T23:25:49.316Z,23.93
2023-11-25T23:28:16.000Z,23.86
2023-11-25T23:30:42.457Z,23.77
2023-11-25T23:33:09.009Z,23.77
2023-11-25T23:35:37.061Z,23.77
2023-11-25T23:38:03.712Z,23.77
2023-11-25T23:40:30.419Z,23.75
2023-11-25T23:42:56.853Z,23.75
2023-11-25T23:45:23.277Z,23.70
2023-11-25T23:47:49.679Z,23.69
2023-11-25T23:50:16.165Z,23.69
2023-11-25T23:52:42.596Z,23.67
2023-11-25T23:55:09.924Z,23.64
2023-11-25T23:57:38.512Z,23.64
